sensor_id;sensor_type;location;lat;lon;timestamp;pressure;altitude;pressure_sealevel;temperature;humidity
9740;BME280;4909;42.680;26.324;2023-02-15T00:01:28;99768.34;;;6.30;63.13
9740;BME280;4909;42.680;26.324;2023-02-15T00:03:55;99775.31;;;6.38;62.53
9740;BME280;4909;42.680;26.324;2023-02-15T00:06:22;99763.94;;;6.30;62.42
9740;BME280;4909;42.680;26.324;2023-02-15T00:08:49;99776.34;;;6.21;62.91
9740;BME280;4909;42.680;26.324;2023-02-15T00:11:17;99752.91;;;5.89;63.59
9740;BME280;4909;42.680;26.324;2023-02-15T00:14:05;99759.84;;;5.96;63.71
9740;BME280;4909;42.680;26.324;2023-02-15T00:16:34;99760.84;;;5.78;65.18
9740;BME280;4909;42.680;26.324;2023-02-15T00:19:01;99757.41;;;5.68;64.99
9740;BME280;4909;42.680;26.324;2023-02-15T00:21:28;99757.34;;;5.78;65.53
9740;BME280;4909;42.680;26.324;2023-02-15T00:23:55;99745.16;;;5.66;65.48
9740;BME280;4909;42.680;26.324;2023-02-15T00:26:23;99760.06;;;5.65;65.73
9740;BME280;4909;42.680;26.324;2023-02-15T00:28:49;99760.88;;;5.72;65.53
9740;BME280;4909;42.680;26.324;2023-02-15T00:31:16;99763.59;;;5.66;65.71
9740;BME280;4909;42.680;26.324;2023-02-15T00:33:44;99767.09;;;5.63;65.94
9740;BME280;4909;42.680;26.324;2023-02-15T00:36:11;99756.59;;;5.57;65.77
9740;BME280;4909;42.680;26.324;2023-02-15T00:38:39;99768.00;;;5.58;66.27
9740;BME280;4909;42.680;26.324;2023-02-15T00:41:06;99756.56;;;5.65;65.70
9740;BME280;4909;42.680;26.324;2023-02-15T00:43:34;99761.78;;;5.66;65.47
9740;BME280;4909;42.680;26.324;2023-02-15T00:46:02;99767.03;;;5.76;65.43
9740;BME280;4909;42.680;26.324;2023-02-15T00:48:29;99774.84;;;5.83;65.24
9740;BME280;4909;42.680;26.324;2023-02-15T00:50:58;99763.44;;;5.87;64.90
9740;BME280;4909;42.680;26.324;2023-02-15T00:53:26;99765.19;;;5.82;65.70
9740;BME280;4909;42.680;26.324;2023-02-15T00:55:53;99775.75;;;5.85;65.10
9740;BME280;4909;42.680;26.324;2023-02-15T00:58:20;99748.63;;;5.68;65.53
9740;BME280;4909;42.680;26.324;2023-02-15T01:00:47;99755.69;;;5.64;65.77
9740;BME280;4909;42.680;26.324;2023-02-15T01:03:16;99759.19;;;5.63;65.91
9740;BME280;4909;42.680;26.324;2023-02-15T01:05:43;99752.03;;;5.87;65.20
9740;BME280;4909;42.680;26.324;2023-02-15T01:08:11;99757.19;;;6.00;64.52
9740;BME280;4909;42.680;26.324;2023-02-15T01:10:38;99756.41;;;5.82;64.85
9740;BME280;4909;42.680;26.324;2023-02-15T01:13:06;99746.78;;;5.76;65.65
9740;BME280;4909;42.680;26.324;2023-02-15T01:15:34;99750.41;;;5.66;66.02
9740;BME280;4909;42.680;26.324;2023-02-15T01:18:01;99757.34;;;5.81;65.71
9740;BME280;4909;42.680;26.324;2023-02-15T01:20:29;99761.69;;;5.82;66.21
9740;BME280;4909;42.680;26.324;2023-02-15T01:22:57;99732.69;;;5.88;64.88
9740;BME280;4909;42.680;26.324;2023-02-15T01:25:25;99748.50;;;5.88;64.63
9740;BME280;4909;42.680;26.324;2023-02-15T01:27:52;99760.81;;;5.87;64.98
9740;BME280;4909;42.680;26.324;2023-02-15T01:30:19;99741.50;;;5.84;65.12
9740;BME280;4909;42.680;26.324;2023-02-15T01:32:46;99765.16;;;5.94;64.73
9740;BME280;4909;42.680;26.324;2023-02-15T01:35:13;99750.28;;;5.81;65.38
9740;BME280;4909;42.680;26.324;2023-02-15T01:37:39;99759.97;;;5.79;65.63
9740;BME280;4909;42.680;26.324;2023-02-15T01:40:08;99759.94;;;5.88;64.98
9740;BME280;4909;42.680;26.324;2023-02-15T01:42:39;99751.22;;;5.74;66.10
9740;BME280;4909;42.680;26.324;2023-02-15T01:45:18;99750.44;;;5.57;66.35
9740;BME280;4909;42.680;26.324;2023-02-15T01:47:50;99759.31;;;5.47;67.12
9740;BME280;4909;42.680;26.324;2023-02-15T01:50:21;99750.50;;;5.48;66.94
9740;BME280;4909;42.680;26.324;2023-02-15T01:52:51;99753.22;;;5.40;67.43
9740;BME280;4909;42.680;26.324;2023-02-15T01:55:21;99756.78;;;5.30;68.33
9740;BME280;4909;42.680;26.324;2023-02-15T01:57:51;99745.38;;;5.30;68.57
9740;BME280;4909;42.680;26.324;2023-02-15T02:00:19;99768.19;;;5.29;68.63
9740;BME280;4909;42.680;26.324;2023-02-15T02:02:48;99766.34;;;5.46;68.08
9740;BME280;4909;42.680;26.324;2023-02-15T02:05:17;99764.56;;;5.51;67.55
9740;BME280;4909;42.680;26.324;2023-02-15T02:07:45;99763.59;;;5.66;67.18
9740;BME280;4909;42.680;26.324;2023-02-15T02:10:15;99759.19;;;5.62;66.98
9740;BME280;4909;42.680;26.324;2023-02-15T02:12:43;99757.47;;;5.61;67.20
9740;BME280;4909;42.680;26.324;2023-02-15T02:15:12;99759.28;;;5.51;66.88
9740;BME280;4909;42.680;26.324;2023-02-15T02:17:49;99768.88;;;5.60;66.56
9740;BME280;4909;42.680;26.324;2023-02-15T02:20:34;99760.16;;;5.47;67.56
9740;BME280;4909;42.680;26.324;2023-02-15T02:23:22;99768.84;;;5.63;67.09
9740;BME280;4909;42.680;26.324;2023-02-15T02:26:13;99751.38;;;5.54;66.52
9740;BME280;4909;42.680;26.324;2023-02-15T02:35:08;99772.25;;;5.80;65.85
9740;BME280;4909;42.680;26.324;2023-02-15T02:37:43;99777.66;;;5.60;66.64
9740;BME280;4909;42.680;26.324;2023-02-15T02:40:16;99774.13;;;5.63;67.05
9740;BME280;4909;42.680;26.324;2023-02-15T02:42:49;99776.78;;;5.61;66.14
9740;BME280;4909;42.680;26.324;2023-02-15T02:45:26;99776.88;;;5.45;67.48
9740;BME280;4909;42.680;26.324;2023-02-15T02:47:57;99784.81;;;5.36;68.31
9740;BME280;4909;42.680;26.324;2023-02-15T02:50:29;99781.28;;;5.38;67.85
9740;BME280;4909;42.680;26.324;2023-02-15T02:52:58;99795.25;;;5.54;67.48
9740;BME280;4909;42.680;26.324;2023-02-15T02:55:28;99791.72;;;5.59;67.82
9740;BME280;4909;42.680;26.324;2023-02-15T02:58:00;99793.53;;;5.50;67.89
9740;BME280;4909;42.680;26.324;2023-02-15T03:00:32;99797.78;;;5.67;67.13
9740;BME280;4909;42.680;26.324;2023-02-15T03:03:05;99798.56;;;5.88;66.18
9740;BME280;4909;42.680;26.324;2023-02-15T03:05:40;99809.00;;;6.03;65.41
9740;BME280;4909;42.680;26.324;2023-02-15T03:08:08;99810.72;;;6.05;65.02
9740;BME280;4909;42.680;26.324;2023-02-15T03:10:36;99810.94;;;5.75;65.96
9740;BME280;4909;42.680;26.324;2023-02-15T03:13:04;99811.03;;;5.61;67.08
9740;BME280;4909;42.680;26.324;2023-02-15T03:15:34;99817.09;;;5.66;66.73
9740;BME280;4909;42.680;26.324;2023-02-15T03:18:18;99802.22;;;5.62;66.93
9740;BME280;4909;42.680;26.324;2023-02-15T03:20:49;99813.63;;;5.66;66.69
9740;BME280;4909;42.680;26.324;2023-02-15T03:23:21;99825.03;;;5.62;67.08
9740;BME280;4909;42.680;26.324;2023-02-15T03:25:50;99822.34;;;5.73;66.10
9740;BME280;4909;42.680;26.324;2023-02-15T03:28:21;99824.13;;;5.71;66.60
9740;BME280;4909;42.680;26.324;2023-02-15T03:30:53;99827.69;;;5.59;66.86
9740;BME280;4909;42.680;26.324;2023-02-15T03:33:23;99837.34;;;5.61;66.75
9740;BME280;4909;42.680;26.324;2023-02-15T03:35:54;99826.78;;;5.63;66.37
9740;BME280;4909;42.680;26.324;2023-02-15T03:38:26;99840.91;;;5.50;67.42
9740;BME280;4909;42.680;26.324;2023-02-15T03:40:56;99847.03;;;5.52;68.37
9740;BME280;4909;42.680;26.324;2023-02-15T03:43:44;99845.34;;;5.46;68.37
9740;BME280;4909;42.680;26.324;2023-02-15T03:46:17;99845.31;;;5.49;67.99
9740;BME280;4909;42.680;26.324;2023-02-15T03:48:52;99846.22;;;5.44;68.27
9740;BME280;4909;42.680;26.324;2023-02-15T03:51:23;99842.66;;;5.52;68.35
9740;BME280;4909;42.680;26.324;2023-02-15T03:54:02;99848.78;;;5.57;67.90
9740;BME280;4909;42.680;26.324;2023-02-15T03:56:29;99857.50;;;5.68;68.09
9740;BME280;4909;42.680;26.324;2023-02-15T03:58:56;99845.16;;;5.80;66.96
9740;BME280;4909;42.680;26.324;2023-02-15T04:01:46;99852.16;;;5.87;67.01
9740;BME280;4909;42.680;26.324;2023-02-15T04:04:32;99850.34;;;5.86;66.86
9740;BME280;4909;42.680;26.324;2023-02-15T04:07:02;99854.72;;;5.96;66.28
9740;BME280;4909;42.680;26.324;2023-02-15T04:09:29;99847.75;;;5.89;66.03
9740;BME280;4909;42.680;26.324;2023-02-15T04:12:13;99861.81;;;5.83;66.59
9740;BME280;4909;42.680;26.324;2023-02-15T04:14:40;99848.63;;;5.83;66.19
9740;BME280;4909;42.680;26.324;2023-02-15T04:17:25;99859.03;;;6.09;65.30
9740;BME280;4909;42.680;26.324;2023-02-15T04:19:51;99863.25;;;6.30;65.01
9740;BME280;4909;42.680;26.324;2023-02-15T04:22:37;99863.25;;;6.30;64.21
9740;BME280;4909;42.680;26.324;2023-02-15T04:25:21;99865.22;;;6.00;65.13
9740;BME280;4909;42.680;26.324;2023-02-15T04:27:50;99874.00;;;6.02;65.17
9740;BME280;4909;42.680;26.324;2023-02-15T04:30:19;99870.50;;;6.02;65.18
9740;BME280;4909;42.680;26.324;2023-02-15T04:32:46;99881.97;;;5.86;66.48
9740;BME280;4909;42.680;26.324;2023-02-15T04:35:14;99885.50;;;5.91;66.20
9740;BME280;4909;42.680;26.324;2023-02-15T04:37:42;99888.91;;;6.06;65.67
9740;BME280;4909;42.680;26.324;2023-02-15T04:40:11;99884.56;;;6.02;65.57
9740;BME280;4909;42.680;26.324;2023-02-15T04:42:38;99892.47;;;6.02;65.29
9740;BME280;4909;42.680;26.324;2023-02-15T04:45:05;99886.28;;;6.06;65.48
9740;BME280;4909;42.680;26.324;2023-02-15T04:47:32;99891.50;;;6.19;64.53
9740;BME280;4909;42.680;26.324;2023-02-15T04:49:59;99892.28;;;6.28;64.39
9740;BME280;4909;42.680;26.324;2023-02-15T04:52:26;99870.53;;;5.97;64.50
9740;BME280;4909;42.680;26.324;2023-02-15T04:54:54;99903.00;;;6.02;65.24
9740;BME280;4909;42.680;26.324;2023-02-15T04:57:21;99905.59;;;6.13;64.56
9740;BME280;4909;42.680;26.324;2023-02-15T04:59:47;99897.75;;;5.98;65.59
9740;BME280;4909;42.680;26.324;2023-02-15T05:02:14;99906.56;;;5.94;65.44
9740;BME280;4909;42.680;26.324;2023-02-15T05:04:41;99911.75;;;6.09;65.04
9740;BME280;4909;42.680;26.324;2023-02-15T05:07:08;99913.53;;;6.02;65.35
9740;BME280;4909;42.680;26.324;2023-02-15T05:09:35;99917.94;;;6.02;65.27
9740;BME280;4909;42.680;26.324;2023-02-15T05:12:03;99920.59;;;5.97;65.92
9740;BME280;4909;42.680;26.324;2023-02-15T05:14:30;99918.81;;;6.01;65.42
9740;BME280;4909;42.680;26.324;2023-02-15T05:16:57;99928.47;;;6.00;65.69
9740;BME280;4909;42.680;26.324;2023-02-15T05:19:26;99928.47;;;6.00;65.97
9740;BME280;4909;42.680;26.324;2023-02-15T05:21:53;99933.81;;;5.85;66.49
9740;BME280;4909;42.680;26.324;2023-02-15T05:24:20;99911.13;;;5.52;67.05
9740;BME280;4909;42.680;26.324;2023-02-15T05:27:05;99934.75;;;5.69;66.83
9740;BME280;4909;42.680;26.324;2023-02-15T05:29:50;99928.53;;;5.82;66.30
9740;BME280;4909;42.680;26.324;2023-02-15T05:32:17;99935.56;;;5.86;66.04
9740;BME280;4909;42.680;26.324;2023-02-15T05:34:43;99950.50;;;5.95;65.64
9740;BME280;4909;42.680;26.324;2023-02-15T05:37:10;99944.28;;;6.02;65.83
9740;BME280;4909;42.680;26.324;2023-02-15T05:39:37;99960.06;;;6.11;65.34
9740;BME280;4909;42.680;26.324;2023-02-15T05:42:04;99951.28;;;6.07;65.30
9740;BME280;4909;42.680;26.324;2023-02-15T05:44:32;99955.72;;;6.04;64.98
9740;BME280;4909;42.680;26.324;2023-02-15T05:46:59;99958.41;;;5.92;65.60
9740;BME280;4909;42.680;26.324;2023-02-15T05:49:28;99953.94;;;6.09;65.30
9740;BME280;4909;42.680;26.324;2023-02-15T05:51:55;99951.22;;;6.21;65.12
9740;BME280;4909;42.680;26.324;2023-02-15T05:54:22;99955.56;;;6.25;65.38
9740;BME280;4909;42.680;26.324;2023-02-15T05:56:49;99950.22;;;6.40;64.77
9740;BME280;4909;42.680;26.324;2023-02-15T05:59:16;99958.28;;;6.10;64.68
9740;BME280;4909;42.680;26.324;2023-02-15T06:01:44;99960.16;;;5.94;65.33
9740;BME280;4909;42.680;26.324;2023-02-15T06:04:11;99968.81;;;6.18;64.92
9740;BME280;4909;42.680;26.324;2023-02-15T06:06:38;99963.38;;;6.43;64.07
9740;BME280;4909;42.680;26.324;2023-02-15T06:09:05;99967.84;;;6.32;64.14
9740;BME280;4909;42.680;26.324;2023-02-15T06:11:32;99964.25;;;6.44;63.80
9740;BME280;4909;42.680;26.324;2023-02-15T06:13:59;99966.50;;;6.92;61.89
9740;BME280;4909;42.680;26.324;2023-02-15T06:16:25;99974.09;;;7.30;59.92
9740;BME280;4909;42.680;26.324;2023-02-15T06:18:53;99980.94;;;7.47;59.54
9740;BME280;4909;42.680;26.324;2023-02-15T06:21:20;99976.72;;;8.08;57.33
9740;BME280;4909;42.680;26.324;2023-02-15T06:23:47;99984.44;;;8.83;54.21
9740;BME280;4909;42.680;26.324;2023-02-15T06:26:14;99983.13;;;9.57;51.47
9740;BME280;4909;42.680;26.324;2023-02-15T06:28:40;99989.31;;;10.44;48.15
9740;BME280;4909;42.680;26.324;2023-02-15T06:31:07;99992.09;;;11.47;44.78
9740;BME280;4909;42.680;26.324;2023-02-15T06:33:34;99985.97;;;12.66;41.40
9740;BME280;4909;42.680;26.324;2023-02-15T06:36:03;99976.28;;;12.91;39.85
9740;BME280;4909;42.680;26.324;2023-02-15T06:38:30;99987.69;;;13.22;39.17
9740;BME280;4909;42.680;26.324;2023-02-15T06:40:56;99985.13;;;13.70;38.25
9740;BME280;4909;42.680;26.324;2023-02-15T06:43:23;99989.28;;;14.50;36.64
9740;BME280;4909;42.680;26.324;2023-02-15T06:45:50;99972.13;;;14.77;35.66
9740;BME280;4909;42.680;26.324;2023-02-15T06:48:17;99983.88;;;15.79;34.38
9740;BME280;4909;42.680;26.324;2023-02-15T06:50:44;99982.19;;;16.92;31.78
9740;BME280;4909;42.680;26.324;2023-02-15T06:53:12;99979.50;;;17.28;30.97
9740;BME280;4909;42.680;26.324;2023-02-15T06:55:38;99982.75;;;17.52;30.19
9740;BME280;4909;42.680;26.324;2023-02-15T06:58:05;99981.75;;;17.71;30.01
9740;BME280;4909;42.680;26.324;2023-02-15T07:00:32;99979.84;;;18.06;28.95
9740;BME280;4909;42.680;26.324;2023-02-15T07:02:59;99982.75;;;18.83;27.99
9740;BME280;4909;42.680;26.324;2023-02-15T07:05:27;99988.47;;;19.70;26.50
9740;BME280;4909;42.680;26.324;2023-02-15T07:07:56;99973.16;;;19.40;26.88
9740;BME280;4909;42.680;26.324;2023-02-15T07:10:24;99987.53;;;17.97;28.17
9740;BME280;4909;42.680;26.324;2023-02-15T07:12:51;99984.84;;;17.45;29.20
9740;BME280;4909;42.680;26.324;2023-02-15T07:15:18;99992.00;;;15.36;32.45
9740;BME280;4909;42.680;26.324;2023-02-15T07:17:46;99980.56;;;15.10;32.87
9740;BME280;4909;42.680;26.324;2023-02-15T07:20:16;99983.56;;;15.25;32.89
9740;BME280;4909;42.680;26.324;2023-02-15T07:22:43;99979.91;;;13.67;35.49
9740;BME280;4909;42.680;26.324;2023-02-15T07:25:11;99987.00;;;12.89;38.36
9740;BME280;4909;42.680;26.324;2023-02-15T07:27:39;99975.31;;;13.71;36.48
9740;BME280;4909;42.680;26.324;2023-02-15T07:30:08;99970.31;;;14.10;35.15
9740;BME280;4909;42.680;26.324;2023-02-15T07:32:35;99982.94;;;15.60;33.59
9740;BME280;4909;42.680;26.324;2023-02-15T07:35:22;99969.13;;;16.09;32.24
9740;BME280;4909;42.680;26.324;2023-02-15T07:37:49;99971.81;;;16.28;31.91
9740;BME280;4909;42.680;26.324;2023-02-15T07:40:16;99982.06;;;16.76;30.98
9740;BME280;4909;42.680;26.324;2023-02-15T07:42:44;99983.66;;;17.33;29.69
9740;BME280;4909;42.680;26.324;2023-02-15T07:45:11;99961.66;;;17.27;29.89
9740;BME280;4909;42.680;26.324;2023-02-15T07:47:37;99974.38;;;19.35;27.78
9740;BME280;4909;42.680;26.324;2023-02-15T07:50:05;99968.59;;;20.43;26.17
9740;BME280;4909;42.680;26.324;2023-02-15T07:52:32;99947.63;;;21.55;24.23
9740;BME280;4909;42.680;26.324;2023-02-15T07:54:59;99970.38;;;22.41;23.06
9740;BME280;4909;42.680;26.324;2023-02-15T07:57:26;99969.97;;;22.09;23.09
9740;BME280;4909;42.680;26.324;2023-02-15T07:59:54;99964.38;;;19.07;26.26
9740;BME280;4909;42.680;26.324;2023-02-15T08:02:20;99969.50;;;19.71;25.96
9740;BME280;4909;42.680;26.324;2023-02-15T08:04:47;99972.31;;;19.70;25.46
9740;BME280;4909;42.680;26.324;2023-02-15T08:07:14;99967.63;;;20.58;25.16
9740;BME280;4909;42.680;26.324;2023-02-15T08:09:41;99975.84;;;17.98;27.23
9740;BME280;4909;42.680;26.324;2023-02-15T08:12:07;99968.13;;;18.57;27.16
9740;BME280;4909;42.680;26.324;2023-02-15T08:14:34;99962.59;;;18.43;27.23
9740;BME280;4909;42.680;26.324;2023-02-15T08:17:02;99964.19;;;17.64;27.93
9740;BME280;4909;42.680;26.324;2023-02-15T08:19:31;99972.63;;;17.22;28.35
9740;BME280;4909;42.680;26.324;2023-02-15T08:22:01;99970.50;;;16.18;29.26
9740;BME280;4909;42.680;26.324;2023-02-15T08:24:30;99981.75;;;15.25;31.40
9740;BME280;4909;42.680;26.324;2023-02-15T08:26:57;99975.69;;;15.42;31.50
9740;BME280;4909;42.680;26.324;2023-02-15T08:29:26;99968.38;;;13.90;33.37
9740;BME280;4909;42.680;26.324;2023-02-15T08:31:55;99974.91;;;13.32;35.17
9740;BME280;4909;42.680;26.324;2023-02-15T08:34:25;99971.09;;;13.14;36.10
9740;BME280;4909;42.680;26.324;2023-02-15T08:36:52;99980.47;;;12.98;35.81
9740;BME280;4909;42.680;26.324;2023-02-15T08:39:18;99978.13;;;12.33;37.65
9740;BME280;4909;42.680;26.324;2023-02-15T08:41:47;99976.06;;;11.49;38.80
9740;BME280;4909;42.680;26.324;2023-02-15T08:44:15;99975.41;;;10.70;40.99
9740;BME280;4909;42.680;26.324;2023-02-15T08:46:43;99979.59;;;10.80;41.52
9740;BME280;4909;42.680;26.324;2023-02-15T08:49:12;99981.38;;;11.16;41.03
9740;BME280;4909;42.680;26.324;2023-02-15T08:51:41;99973.69;;;11.38;39.76
9740;BME280;4909;42.680;26.324;2023-02-15T08:54:12;99967.44;;;12.62;37.34
9740;BME280;4909;42.680;26.324;2023-02-15T08:56:40;99969.72;;;13.29;35.51
9740;BME280;4909;42.680;26.324;2023-02-15T08:59:12;99978.97;;;12.63;36.04
9740;BME280;4909;42.680;26.324;2023-02-15T09:01:39;99979.00;;;11.38;38.34
9740;BME280;4909;42.680;26.324;2023-02-15T09:04:07;99971.66;;;11.14;39.59
9740;BME280;4909;42.680;26.324;2023-02-15T09:06:35;99972.72;;;12.05;38.12
9740;BME280;4909;42.680;26.324;2023-02-15T09:09:04;99967.47;;;13.41;35.42
9740;BME280;4909;42.680;26.324;2023-02-15T09:11:33;99965.63;;;13.43;34.82
9740;BME280;4909;42.680;26.324;2023-02-15T09:14:03;99966.38;;;12.94;36.86
9740;BME280;4909;42.680;26.324;2023-02-15T09:16:32;99969.56;;;12.51;36.85
9740;BME280;4909;42.680;26.324;2023-02-15T09:18:59;99970.38;;;12.81;36.74
9740;BME280;4909;42.680;26.324;2023-02-15T09:21:27;99972.47;;;12.72;37.26
9740;BME280;4909;42.680;26.324;2023-02-15T09:23:56;99967.03;;;11.88;39.07
9740;BME280;4909;42.680;26.324;2023-02-15T09:26:27;99966.91;;;11.93;39.43
9740;BME280;4909;42.680;26.324;2023-02-15T09:28:56;99969.34;;;11.68;39.60
9740;BME280;4909;42.680;26.324;2023-02-15T09:31:25;99968.34;;;12.04;38.94
9740;BME280;4909;42.680;26.324;2023-02-15T09:33:53;99962.25;;;13.12;36.42
9740;BME280;4909;42.680;26.324;2023-02-15T09:36:22;99958.19;;;12.46;37.76
9740;BME280;4909;42.680;26.324;2023-02-15T09:38:54;99958.06;;;12.49;37.77
9740;BME280;4909;42.680;26.324;2023-02-15T09:41:36;99955.22;;;13.10;36.10
9740;BME280;4909;42.680;26.324;2023-02-15T09:44:16;99941.28;;;13.28;36.33
9740;BME280;4909;42.680;26.324;2023-02-15T09:47:03;99949.50;;;13.22;36.01
9740;BME280;4909;42.680;26.324;2023-02-15T09:49:40;99953.53;;;13.33;36.56
9740;BME280;4909;42.680;26.324;2023-02-15T09:52:35;99940.69;;;12.38;37.46
9740;BME280;4909;42.680;26.324;2023-02-15T09:55:23;99949.81;;;11.69;38.09
9740;BME280;4909;42.680;26.324;2023-02-15T09:57:58;99908.13;;;11.39;39.39
9740;BME280;4909;42.680;26.324;2023-02-15T10:00:31;99938.91;;;11.47;39.79
9740;BME280;4909;42.680;26.324;2023-02-15T10:03:20;99934.66;;;11.08;40.71
9740;BME280;4909;42.680;26.324;2023-02-15T10:06:03;99937.88;;;11.19;40.69
9740;BME280;4909;42.680;26.324;2023-02-15T10:08:53;99922.13;;;10.77;41.06
9740;BME280;4909;42.680;26.324;2023-02-15T10:11:32;99917.97;;;11.03;41.98
9740;BME280;4909;42.680;26.324;2023-02-15T10:14:24;99909.41;;;11.56;41.37
9740;BME280;4909;42.680;26.324;2023-02-15T10:17:09;99907.25;;;11.69;40.58
9740;BME280;4909;42.680;26.324;2023-02-15T10:19:47;99885.78;;;11.76;40.25
9740;BME280;4909;42.680;26.324;2023-02-15T10:22:28;99897.03;;;11.55;40.73
9740;BME280;4909;42.680;26.324;2023-02-15T10:25:14;99884.16;;;11.71;40.74
9740;BME280;4909;42.680;26.324;2023-02-15T10:27:48;99900.91;;;11.76;40.45
9740;BME280;4909;42.680;26.324;2023-02-15T10:30:19;99893.56;;;11.84;39.81
9740;BME280;4909;42.680;26.324;2023-02-15T10:32:57;99881.84;;;12.19;38.57
9740;BME280;4909;42.680;26.324;2023-02-15T10:35:32;99888.19;;;12.15;38.52
9740;BME280;4909;42.680;26.324;2023-02-15T10:38:13;99866.16;;;12.10;38.44
9740;BME280;4909;42.680;26.324;2023-02-15T10:40:49;99882.50;;;12.26;38.58
9740;BME280;4909;42.680;26.324;2023-02-15T10:43:31;99887.94;;;12.23;38.50
9740;BME280;4909;42.680;26.324;2023-02-15T10:46:13;99880.84;;;12.22;38.36
9740;BME280;4909;42.680;26.324;2023-02-15T10:49:01;99875.53;;;11.94;39.66
9740;BME280;4909;42.680;26.324;2023-02-15T10:51:39;99872.00;;;11.93;39.62
9740;BME280;4909;42.680;26.324;2023-02-15T10:54:18;99865.91;;;12.17;38.52
9740;BME280;4909;42.680;26.324;2023-02-15T10:56:58;99867.25;;;12.31;38.23
9740;BME280;4909;42.680;26.324;2023-02-15T10:59:37;99872.22;;;12.15;39.20
9740;BME280;4909;42.680;26.324;2023-02-15T11:02:15;99870.91;;;12.00;39.63
9740;BME280;4909;42.680;26.324;2023-02-15T11:04:50;99860.16;;;12.03;38.61
9740;BME280;4909;42.680;26.324;2023-02-15T11:07:22;99870.94;;;11.99;38.58
9740;BME280;4909;42.680;26.324;2023-02-15T11:09:53;99861.75;;;11.80;38.87
9740;BME280;4909;42.680;26.324;2023-02-15T11:12:24;99864.91;;;11.92;38.92
9740;BME280;4909;42.680;26.324;2023-02-15T11:14:57;99875.09;;;11.78;38.92
9740;BME280;4909;42.680;26.324;2023-02-15T11:17:33;99860.75;;;11.84;38.57
9740;BME280;4909;42.680;26.324;2023-02-15T11:20:09;99865.53;;;11.71;38.48
9740;BME280;4909;42.680;26.324;2023-02-15T11:22:41;99863.97;;;11.64;38.32
9740;BME280;4909;42.680;26.324;2023-02-15T11:25:17;99861.38;;;11.31;39.20
9740;BME280;4909;42.680;26.324;2023-02-15T11:27:46;99862.66;;;11.48;39.60
9740;BME280;4909;42.680;26.324;2023-02-15T11:30:17;99854.53;;;11.52;39.88
9740;BME280;4909;42.680;26.324;2023-02-15T11:32:48;99824.03;;;11.65;39.21
9740;BME280;4909;42.680;26.324;2023-02-15T11:35:20;99833.53;;;11.75;39.00
9740;BME280;4909;42.680;26.324;2023-02-15T11:37:54;99859.44;;;11.97;37.79
9740;BME280;4909;42.680;26.324;2023-02-15T11:40:24;99847.56;;;11.81;38.81
9740;BME280;4909;42.680;26.324;2023-02-15T11:42:55;99848.91;;;11.94;38.58
9740;BME280;4909;42.680;26.324;2023-02-15T11:45:26;99840.81;;;11.97;38.81
9740;BME280;4909;42.680;26.324;2023-02-15T11:47:56;99825.22;;;12.40;38.34
9740;BME280;4909;42.680;26.324;2023-02-15T11:50:25;99832.72;;;12.29;38.17
9740;BME280;4909;42.680;26.324;2023-02-15T11:52:57;99832.66;;;12.03;38.72
9740;BME280;4909;42.680;26.324;2023-02-15T11:55:25;99832.78;;;12.00;39.09
9740;BME280;4909;42.680;26.324;2023-02-15T11:57:56;99827.34;;;12.03;38.63
9740;BME280;4909;42.680;26.324;2023-02-15T12:00:32;99829.41;;;12.21;38.41
9740;BME280;4909;42.680;26.324;2023-02-15T12:03:09;99826.75;;;11.93;38.81
9740;BME280;4909;42.680;26.324;2023-02-15T12:05:40;99823.13;;;11.96;39.03
9740;BME280;4909;42.680;26.324;2023-02-15T12:08:14;99819.47;;;12.00;38.96
9740;BME280;4909;42.680;26.324;2023-02-15T12:10:49;99818.88;;;11.90;38.96
9740;BME280;4909;42.680;26.324;2023-02-15T12:13:20;99815.09;;;11.68;39.57
9740;BME280;4909;42.680;26.324;2023-02-15T12:15:48;99809.72;;;11.99;39.60
9740;BME280;4909;42.680;26.324;2023-02-15T12:18:34;99821.75;;;11.83;39.16
9740;BME280;4909;42.680;26.324;2023-02-15T12:21:05;99797.22;;;11.71;39.69
9740;BME280;4909;42.680;26.324;2023-02-15T12:23:33;99802.41;;;11.77;38.60
9740;BME280;4909;42.680;26.324;2023-02-15T12:26:06;99812.59;;;11.62;39.22
9740;BME280;4909;42.680;26.324;2023-02-15T12:28:34;99808.38;;;11.86;38.64
9740;BME280;4909;42.680;26.324;2023-02-15T12:31:07;99800.78;;;11.72;39.17
9740;BME280;4909;42.680;26.324;2023-02-15T12:33:41;99749.75;;;11.59;38.95
9740;BME280;4909;42.680;26.324;2023-02-15T12:36:13;99783.56;;;11.56;39.38
9740;BME280;4909;42.680;26.324;2023-02-15T12:38:42;99810.25;;;11.82;38.97
9740;BME280;4909;42.680;26.324;2023-02-15T12:41:22;99802.91;;;11.90;38.86
9740;BME280;4909;42.680;26.324;2023-02-15T12:44:03;99796.03;;;12.11;38.20
9740;BME280;4909;42.680;26.324;2023-02-15T12:46:31;99802.47;;;11.76;39.13
9740;BME280;4909;42.680;26.324;2023-02-15T12:49:16;99798.06;;;11.75;38.81
9740;BME280;4909;42.680;26.324;2023-02-15T12:51:48;99799.31;;;11.62;39.23
9740;BME280;4909;42.680;26.324;2023-02-15T12:54:17;99800.84;;;11.70;39.03
9740;BME280;4909;42.680;26.324;2023-02-15T12:56:44;99800.09;;;11.65;39.26
9740;BME280;4909;42.680;26.324;2023-02-15T12:59:13;99795.66;;;11.66;39.02
9740;BME280;4909;42.680;26.324;2023-02-15T13:01:41;99799.19;;;11.66;39.07
9740;BME280;4909;42.680;26.324;2023-02-15T13:04:19;99797.22;;;11.71;39.47
9740;BME280;4909;42.680;26.324;2023-02-15T13:06:49;99803.03;;;11.56;39.85
9740;BME280;4909;42.680;26.324;2023-02-15T13:09:20;99786.63;;;11.42;39.46
9740;BME280;4909;42.680;26.324;2023-02-15T13:11:47;99807.09;;;11.68;39.02
9740;BME280;4909;42.680;26.324;2023-02-15T13:14:19;99782.22;;;11.41;39.25
9740;BME280;4909;42.680;26.324;2023-02-15T13:16:48;99799.25;;;11.34;39.77
9740;BME280;4909;42.680;26.324;2023-02-15T13:19:20;99798.63;;;11.26;39.82
9740;BME280;4909;42.680;26.324;2023-02-15T13:21:51;99789.19;;;11.45;39.46
9740;BME280;4909;42.680;26.324;2023-02-15T13:24:23;99792.69;;;11.47;39.32
9740;BME280;4909;42.680;26.324;2023-02-15T13:26:52;99787.09;;;10.95;40.36
9740;BME280;4909;42.680;26.324;2023-02-15T13:29:24;99791.91;;;11.13;39.92
9740;BME280;4909;42.680;26.324;2023-02-15T13:31:52;99792.38;;;10.96;40.62
9740;BME280;4909;42.680;26.324;2023-02-15T13:34:24;99795.72;;;10.70;40.33
9740;BME280;4909;42.680;26.324;2023-02-15T13:36:59;99782.75;;;10.92;40.52
9740;BME280;4909;42.680;26.324;2023-02-15T13:39:33;99795.50;;;10.79;40.37
9740;BME280;4909;42.680;26.324;2023-02-15T13:42:09;99788.19;;;10.87;40.01